Sunny Smile — D5DG3 — position and weather

sailwx.info

Track history (hours):
 
Tides and Currents Weather Stations Pressure Air Temp Water Temp Dewpoint Dewpoint Depression Visibility Wind Speed Wind Dir Waves Ship Positions

Sunny Smile

Last reported at 2018-Feb-07 06:14 UTC. Time now 2018-Feb-24 16:22 UTC.
Position N 31°01' E 032°19'.
Warning: this ship's position is 17 days out of date.

Length 235 m; draft 12.8 m.

Type: Ship. MMSI: 636015871.

Date/timePositionNaut miles runAvg speedWind from/ knotsBaromVisibWave heightAir tempDewpointWater temp
2018-Feb-07 06:14N 31°01' E 032°19'2 7.5
2018-Feb-07 06:00N 31°03' E 032°19'4 7.4
2018-Feb-07 05:30N 31°07' E 032°19'4 7.6
2018-Feb-07 05:00N 31°10' E 032°20'3 6.8
2018-Feb-07 04:30N 31°14' E 032°21'3 6.7
2018-Feb-07 04:00N 31°17' E 032°22'510.3
2018-Feb-07 03:30N 31°22' E 032°23'3 5.5
2018-Feb-07 02:57N 31°25' E 032°21'2 3.2
2018-Feb-07 02:25N 31°25' E 032°19'2 4.7
2018-Feb-07 02:00N 31°25' E 032°17'1 1.1
2018-Feb-07 01:30N 31°24' E 032°16'0 0.1
2018-Feb-07 01:00N 31°24' E 032°16'0 0.0
2018-Feb-07 00:30N 31°24' E 032°16'0 0.0
2018-Feb-06 23:57N 31°24' E 032°16'0 0.0
2018-Feb-06 23:24N 31°24' E 032°16'0 0.0
2018-Feb-06 23:00N 31°24' E 032°16'0 0.0
2018-Feb-06 19:54N 31°24' E 032°17'0 0.2
2018-Feb-06 19:13N 31°25' E 032°17'1 3.4
2018-Feb-06 19:00N 31°25' E 032°16'810.0
2018-Feb-06 18:12N 31°32' E 032°12'710.8
2018-Feb-06 17:30N 31°38' E 032°05'1312.1
2018-Feb-06 16:25N 31°47' E 031°54'512.0
2018-Feb-06 16:00N 31°50' E 031°49'712.1
2018-Feb-06 15:23N 31°54' E 031°42'512.3
2018-Feb-06 15:00N 31°57' E 031°38'1212.6
2018-Feb-06 14:04N 32°04' E 031°27'712.4
2018-Feb-06 13:30N 32°08' E 031°20'612.3
2018-Feb-06 13:00N 32°12' E 031°14'713.0
2018-Feb-06 12:28N 32°16' E 031°08'1112.2
2018-Feb-06 11:32N 32°23' E 030°57'012.2
2018-Feb-06 11:30N 32°23' E 030°57'46514.2
2018-Feb-05 02:47N 37°26' E 023°47'412.8
2018-Feb-05 02:30N 37°30' E 023°46'612.9
2018-Feb-05 02:00N 37°36' E 023°43'612.9
2018-Feb-05 01:30N 37°42' E 023°41'612.7
2018-Feb-05 01:00N 37°48' E 023°37'611.7
2018-Feb-05 00:31N 37°52' E 023°32'1 2.3
2018-Feb-05 00:00N 37°52' E 023°31'0 0.2
2018-Feb-04 23:30N 37°52' E 023°31'0 0.0
2018-Feb-04 23:00N 37°52' E 023°31'0 0.0
2018-Feb-04 22:30N 37°52' E 023°31'0 0.1
2018-Feb-04 22:00N 37°52' E 023°31'0 0.0
2018-Feb-04 21:30N 37°52' E 023°31'0 0.0
2018-Feb-04 21:00N 37°52' E 023°31'0 0.0
2018-Feb-04 20:00N 37°52' E 023°31'0 0.0
2018-Feb-04 19:30N 37°52' E 023°31'0 0.0
2018-Feb-04 19:00N 37°52' E 023°31'0 0.1
2018-Feb-04 18:30N 37°52' E 023°31'0 0.2
2018-Feb-04 18:00N 37°52' E 023°31'0 0.3
2018-Feb-04 17:30N 37°52' E 023°31'8 4.0
2018-Feb-04 15:30N 37°49' E 023°40'611.4
2018-Feb-04 15:00N 37°44' E 023°43'611.1
2018-Feb-04 14:30N 37°38' E 023°45'611.4
2018-Feb-04 14:00N 37°33' E 023°45'611.9
2018-Feb-04 13:30N 37°27' E 023°45'612.4
2018-Feb-04 13:00N 37°20' E 023°45'612.6
2018-Feb-04 12:30N 37°14' E 023°45'  
2018-Jan-28 07:00N 39°53' E 019°06'  
Track history (hours):
 
Tides and Currents Weather Stations Pressure Air Temp Water Temp Dewpoint Dewpoint Depression Visibility Wind Speed Wind Dir Waves Ship Positions

Sunny Smile

Last reported at 2018-Feb-07 06:14 UTC. Time now 2018-Feb-24 16:22 UTC.
Position N 31°01' E 032°19'.
Warning: this ship's position is 17 days out of date.

Length 235 m; draft 12.8 m.

Type: Ship. MMSI: 636015871.

Date/timePositionNaut miles runAvg speedWind from/ knotsBaromVisibWave heightAir tempDewpointWater temp
2018-Feb-07 06:14N 31°01' E 032°19'2 7.5
2018-Feb-07 06:00N 31°03' E 032°19'4 7.4
2018-Feb-07 05:30N 31°07' E 032°19'4 7.6
2018-Feb-07 05:00N 31°10' E 032°20'3 6.8
2018-Feb-07 04:30N 31°14' E 032°21'3 6.7
2018-Feb-07 04:00N 31°17' E 032°22'510.3
2018-Feb-07 03:30N 31°22' E 032°23'3 5.5
2018-Feb-07 02:57N 31°25' E 032°21'2 3.2
2018-Feb-07 02:25N 31°25' E 032°19'2 4.7
2018-Feb-07 02:00N 31°25' E 032°17'1 1.1
2018-Feb-07 01:30N 31°24' E 032°16'0 0.1
2018-Feb-07 01:00N 31°24' E 032°16'0 0.0
2018-Feb-07 00:30N 31°24' E 032°16'0 0.0
2018-Feb-06 23:57N 31°24' E 032°16'0 0.0
2018-Feb-06 23:24N 31°24' E 032°16'0 0.0
2018-Feb-06 23:00N 31°24' E 032°16'0 0.0
2018-Feb-06 19:54N 31°24' E 032°17'0 0.2
2018-Feb-06 19:13N 31°25' E 032°17'1 3.4
2018-Feb-06 19:00N 31°25' E 032°16'810.0
2018-Feb-06 18:12N 31°32' E 032°12'710.8
2018-Feb-06 17:30N 31°38' E 032°05'1312.1
2018-Feb-06 16:25N 31°47' E 031°54'512.0
2018-Feb-06 16:00N 31°50' E 031°49'712.1
2018-Feb-06 15:23N 31°54' E 031°42'512.3
2018-Feb-06 15:00N 31°57' E 031°38'1212.6
2018-Feb-06 14:04N 32°04' E 031°27'712.4
2018-Feb-06 13:30N 32°08' E 031°20'612.3
2018-Feb-06 13:00N 32°12' E 031°14'713.0
2018-Feb-06 12:28N 32°16' E 031°08'1112.2
2018-Feb-06 11:32N 32°23' E 030°57'012.2
2018-Feb-06 11:30N 32°23' E 030°57'46514.2
2018-Feb-05 02:47N 37°26' E 023°47'412.8
2018-Feb-05 02:30N 37°30' E 023°46'612.9
2018-Feb-05 02:00N 37°36' E 023°43'612.9
2018-Feb-05 01:30N 37°42' E 023°41'612.7
2018-Feb-05 01:00N 37°48' E 023°37'611.7
2018-Feb-05 00:31N 37°52' E 023°32'1 2.3
2018-Feb-05 00:00N 37°52' E 023°31'0 0.2
2018-Feb-04 23:30N 37°52' E 023°31'0 0.0
2018-Feb-04 23:00N 37°52' E 023°31'0 0.0
2018-Feb-04 22:30N 37°52' E 023°31'0 0.1
2018-Feb-04 22:00N 37°52' E 023°31'0 0.0
2018-Feb-04 21:30N 37°52' E 023°31'0 0.0
2018-Feb-04 21:00N 37°52' E 023°31'0 0.0
2018-Feb-04 20:00N 37°52' E 023°31'0 0.0
2018-Feb-04 19:30N 37°52' E 023°31'0 0.0
2018-Feb-04 19:00N 37°52' E 023°31'0 0.1
2018-Feb-04 18:30N 37°52' E 023°31'0 0.2
2018-Feb-04 18:00N 37°52' E 023°31'0 0.3
2018-Feb-04 17:30N 37°52' E 023°31'8 4.0
2018-Feb-04 15:30N 37°49' E 023°40'611.4
2018-Feb-04 15:00N 37°44' E 023°43'611.1
2018-Feb-04 14:30N 37°38' E 023°45'611.4
2018-Feb-04 14:00N 37°33' E 023°45'611.9
2018-Feb-04 13:30N 37°27' E 023°45'612.4
2018-Feb-04 13:00N 37°20' E 023°45'612.6
2018-Feb-04 12:30N 37°14' E 023°45'  
2018-Jan-28 07:00N 39°53' E 019°06'  

Dump ship's entire track history